createdAt,value
2018-11-20T00:00:25.205Z,4.67
2018-11-20T00:01:25.231Z,4.66
2018-11-20T00:02:25.258Z,4.66
2018-11-20T00:03:25.327Z,4.51
2018-11-20T00:04:25.309Z,4.48
2018-11-20T00:05:25.403Z,4.51
2018-11-20T00:06:25.361Z,4.45
2018-11-20T00:07:25.387Z,4.47
2018-11-20T00:08:25.418Z,4.54
2018-11-20T00:09:25.439Z,4.48
2018-11-20T00:10:25.467Z,4.45
2018-11-20T00:11:25.492Z,4.47
2018-11-20T00:12:25.519Z,4.40
2018-11-20T00:13:25.543Z,4.41
2018-11-20T00:14:25.570Z,4.37
2018-11-20T00:15:25.596Z,4.32
2018-11-20T00:16:25.630Z,4.34
2018-11-20T00:17:25.649Z,4.40
2018-11-20T00:18:25.676Z,4.34
2018-11-20T00:19:25.703Z,4.44
2018-11-20T00:20:25.728Z,4.37
2018-11-20T00:21:25.755Z,4.47
2018-11-20T00:22:25.780Z,4.42
2018-11-20T00:23:25.807Z,4.42
2018-11-20T00:24:25.836Z,4.44
2018-11-20T00:25:25.858Z,4.44
2018-11-20T00:26:25.884Z,4.37
2018-11-20T00:27:25.912Z,4.44
2018-11-20T00:28:25.937Z,4.47
2018-11-20T00:29:25.963Z,4.47
2018-11-20T00:30:25.989Z,4.41
2018-11-20T00:31:26.017Z,4.41
2018-11-20T00:32:26.044Z,4.42
2018-11-20T00:33:26.070Z,4.40
2018-11-20T00:34:26.095Z,4.40
2018-11-20T00:35:26.120Z,4.26
2018-11-20T00:36:26.146Z,4.27
2018-11-20T00:37:26.173Z,4.20
2018-11-20T00:38:26.200Z,4.09
2018-11-20T00:39:26.227Z,4.16
2018-11-20T00:40:26.252Z,4.05
2018-11-20T00:41:26.276Z,4.05
2018-11-20T00:42:26.331Z,4.06
2018-11-20T00:43:26.331Z,3.96
2018-11-20T00:44:26.357Z,4.20
2018-11-20T00:45:26.382Z,4.16
2018-11-20T00:46:26.408Z,4.12
2018-11-20T00:47:26.434Z,4.09
2018-11-20T00:48:26.460Z,4.11
2018-11-20T00:49:26.485Z,4.00
2018-11-20T00:50:26.511Z,3.97
2018-11-20T00:51:26.540Z,3.98
2018-11-20T00:52:26.564Z,3.79
2018-11-20T00:53:26.589Z,3.86
2018-11-20T00:54:26.617Z,3.84
2018-11-20T00:55:26.643Z,3.75
2018-11-20T00:56:26.668Z,3.86
2018-11-20T00:57:26.693Z,3.80
2018-11-20T00:58:26.719Z,3.70
2018-11-20T00:59:26.751Z,3.83
2018-11-20T01:00:26.775Z,3.87
2018-11-20T01:01:26.797Z,3.70
2018-11-20T01:02:26.823Z,3.61
2018-11-20T01:03:26.849Z,3.66
2018-11-20T01:04:26.876Z,3.70
2018-11-20T01:05:26.904Z,3.52
2018-11-20T01:06:26.927Z,3.54
2018-11-20T01:07:26.952Z,3.57
2018-11-20T01:08:26.978Z,3.47
2018-11-20T01:09:27.004Z,3.48
2018-11-20T01:10:27.031Z,3.55
2018-11-20T01:11:27.057Z,3.42
2018-11-20T01:12:27.081Z,3.36
2018-11-20T01:13:27.107Z,3.48
2018-11-20T01:14:27.133Z,3.40
2018-11-20T01:15:27.158Z,3.45
2018-11-20T01:16:27.187Z,3.39
2018-11-20T01:17:27.209Z,3.48
2018-11-20T01:18:27.235Z,3.33
2018-11-20T01:19:27.261Z,3.32
2018-11-20T01:20:27.323Z,3.32
2018-11-20T01:21:27.312Z,3.29
2018-11-20T01:22:27.339Z,3.26
2018-11-20T01:23:27.365Z,3.17
2018-11-20T01:24:27.390Z,3.18
2018-11-20T01:25:27.415Z,3.23
2018-11-20T01:26:27.440Z,3.17
2018-11-20T01:27:27.467Z,3.11
2018-11-20T01:28:27.496Z,3.11
2018-11-20T01:29:27.517Z,3.17
2018-11-20T01:30:27.543Z,3.18
2018-11-20T01:31:27.569Z,3.06
2018-11-20T01:32:27.594Z,3.03
2018-11-20T01:33:27.620Z,3.06
2018-11-20T01:34:27.646Z,3.11
2018-11-20T01:35:27.671Z,3.06
2018-11-20T01:36:27.698Z,2.99
2018-11-20T01:37:27.721Z,2.97
2018-11-20T01:38:27.748Z,2.96
2018-11-20T01:39:27.774Z,2.99
2018-11-20T01:40:27.799Z,3.02
2018-11-20T01:41:27.892Z,2.99
2018-11-20T01:42:27.890Z,3.00
2018-11-20T01:43:27.875Z,2.93
2018-11-20T01:44:27.900Z,2.92
2018-11-20T01:45:27.926Z,3.05
2018-11-20T01:46:27.952Z,3.08
2018-11-20T01:47:27.977Z,2.97
2018-11-20T01:48:28.002Z,3.17
2018-11-20T01:49:28.027Z,3.14
2018-11-20T01:50:28.052Z,3.15
2018-11-20T01:51:28.204Z,3.06
2018-11-20T01:52:28.103Z,3.06
2018-11-20T01:53:28.133Z,2.99
2018-11-20T01:54:28.155Z,2.96
2018-11-20T01:55:28.180Z,2.99
2018-11-20T01:56:28.205Z,2.90
2018-11-20T01:57:28.230Z,2.97
2018-11-20T01:58:28.255Z,2.96
2018-11-20T01:59:28.281Z,2.93
2018-11-20T02:00:28.306Z,2.97
2018-11-20T02:01:28.331Z,2.96
2018-11-20T02:02:28.358Z,2.84
2018-11-20T02:03:28.383Z,2.82
2018-11-20T02:04:28.408Z,2.93
2018-11-20T02:05:28.434Z,2.92
2018-11-20T02:06:28.457Z,2.89
2018-11-20T02:07:28.484Z,2.89
2018-11-20T02:08:28.508Z,3.00
2018-11-20T02:09:28.536Z,3.06
2018-11-20T02:10:28.558Z,2.90
2018-11-20T02:11:28.583Z,2.92
2018-11-20T02:12:28.609Z,2.92
2018-11-20T02:13:28.633Z,2.85
2018-11-20T02:14:28.660Z,2.69
2018-11-20T02:15:28.684Z,2.69
2018-11-20T02:16:28.710Z,2.63
2018-11-20T02:17:28.736Z,2.59
2018-11-20T02:18:28.760Z,2.34
2018-11-20T02:19:28.786Z,2.35
2018-11-20T02:20:28.815Z,2.35
2018-11-20T02:21:28.837Z,2.35
2018-11-20T02:22:28.863Z,2.42
2018-11-20T02:23:28.886Z,2.52
2018-11-20T02:24:28.911Z,2.48
2018-11-20T02:25:28.935Z,2.54
2018-11-20T02:26:28.960Z,2.60
2018-11-20T02:27:28.986Z,2.60
2018-11-20T02:28:29.011Z,2.54
2018-11-20T02:29:29.036Z,2.57
2018-11-20T02:30:29.062Z,2.48
2018-11-20T02:31:29.086Z,2.35
2018-11-20T02:32:29.112Z,2.27
2018-11-20T02:33:29.135Z,2.16
2018-11-20T02:34:29.162Z,2.18
2018-11-20T02:35:29.186Z,2.30
2018-11-20T02:36:29.211Z,2.30
2018-11-20T02:37:29.235Z,2.35
2018-11-20T02:38:29.266Z,2.35
2018-11-20T02:39:29.285Z,2.36
2018-11-20T02:40:29.313Z,2.36
2018-11-20T02:41:29.335Z,2.45
2018-11-20T02:42:29.361Z,2.45
2018-11-20T02:43:29.385Z,2.45
2018-11-20T02:44:29.416Z,2.43
2018-11-20T02:45:29.435Z,2.30
2018-11-20T02:46:29.464Z,2.36
2018-11-20T02:47:29.486Z,2.31
2018-11-20T02:48:29.511Z,2.31
2018-11-20T02:49:29.534Z,2.21
2018-11-20T02:50:29.559Z,2.23
2018-11-20T02:51:29.633Z,2.23
2018-11-20T02:52:29.610Z,2.21
2018-11-20T02:53:29.633Z,2.28
2018-11-20T02:54:29.660Z,2.31
2018-11-20T02:55:29.685Z,2.20
2018-11-20T02:56:29.710Z,2.38
2018-11-20T02:57:29.753Z,2.35
2018-11-20T02:58:29.763Z,2.30
2018-11-20T02:59:29.785Z,2.28
2018-11-20T03:00:29.809Z,2.34
2018-11-20T03:01:29.832Z,2.34
2018-11-20T03:02:29.858Z,2.46
2018-11-20T03:03:29.933Z,2.66
2018-11-20T03:04:29.908Z,2.87
2018-11-20T03:05:29.931Z,2.92
2018-11-20T03:06:29.957Z,2.79
2018-11-20T03:07:29.981Z,2.82
2018-11-20T03:08:30.008Z,2.90
2018-11-20T03:09:30.032Z,2.93
2018-11-20T03:10:30.056Z,2.90
2018-11-20T03:11:30.081Z,2.95
2018-11-20T03:12:30.107Z,3.10
2018-11-20T03:13:30.129Z,3.13
2018-11-20T03:14:30.155Z,3.20
2018-11-20T03:15:30.181Z,3.17
2018-11-20T03:16:30.206Z,3.03
2018-11-20T03:17:30.230Z,3.00
2018-11-20T03:18:30.255Z,3.02
2018-11-20T03:19:30.279Z,3.17
2018-11-20T03:20:30.305Z,3.24
2018-11-20T03:21:30.329Z,3.31
2018-11-20T03:22:30.353Z,3.40
2018-11-20T03:23:30.382Z,3.31
2018-11-20T03:24:30.402Z,3.43
2018-11-20T03:25:30.427Z,3.45
2018-11-20T03:26:30.452Z,3.43
2018-11-20T03:27:30.478Z,3.40
2018-11-20T03:28:30.503Z,3.39
2018-11-20T03:29:30.528Z,3.42
2018-11-20T03:30:30.551Z,3.43
2018-11-20T03:31:30.577Z,3.31
2018-11-20T03:32:30.603Z,3.47
2018-11-20T03:33:30.626Z,3.31
2018-11-20T03:34:30.651Z,3.32
2018-11-20T03:35:30.675Z,3.33
2018-11-20T03:36:30.705Z,3.32
2018-11-20T03:37:30.724Z,3.29
2018-11-20T03:38:30.750Z,3.31
2018-11-20T03:39:30.775Z,3.18
2018-11-20T03:40:30.800Z,3.18
2018-11-20T03:41:30.829Z,3.14
2018-11-20T03:42:30.850Z,3.00
2018-11-20T03:43:30.875Z,2.95
2018-11-20T03:44:30.899Z,2.92
2018-11-20T03:45:30.924Z,2.97
2018-11-20T03:46:30.950Z,2.96
2018-11-20T03:47:30.974Z,2.99
2018-11-20T03:48:31.001Z,2.87
2018-11-20T03:49:31.024Z,2.84
2018-11-20T03:50:31.050Z,2.81
2018-11-20T03:51:31.073Z,2.85
2018-11-20T03:52:31.098Z,2.95
2018-11-20T03:53:31.122Z,2.92
2018-11-20T03:54:31.148Z,2.92
2018-11-20T03:55:31.173Z,2.89
2018-11-20T03:56:31.197Z,2.84
2018-11-20T03:57:31.222Z,2.79
2018-11-20T03:58:31.246Z,2.71
2018-11-20T03:59:31.272Z,2.67
2018-11-20T04:00:31.297Z,2.59
2018-11-20T04:01:31.322Z,2.43
2018-11-20T04:02:31.348Z,2.30
2018-11-20T04:03:31.372Z,2.39
2018-11-20T04:04:31.397Z,2.35
2018-11-20T04:05:31.423Z,2.27
2018-11-20T04:06:31.444Z,2.17
2018-11-20T04:07:31.470Z,2.18
2018-11-20T04:08:31.497Z,2.12
2018-11-20T04:09:31.519Z,2.18
2018-11-20T04:10:31.543Z,2.18
2018-11-20T04:11:31.569Z,2.17
2018-11-20T04:12:31.596Z,2.14
2018-11-20T04:13:31.622Z,2.14
2018-11-20T04:14:31.643Z,2.00
2018-11-20T04:15:33.421Z,2.03
2018-11-20T04:16:31.692Z,2.05
2018-11-20T04:17:31.716Z,2.09
2018-11-20T04:18:31.744Z,2.06
2018-11-20T04:19:31.766Z,2.05
2018-11-20T04:20:31.790Z,1.98
2018-11-20T04:21:31.814Z,1.91
2018-11-20T04:22:31.839Z,1.93
2018-11-20T04:23:31.864Z,1.86
2018-11-20T04:24:31.890Z,1.68
2018-11-20T04:25:31.916Z,1.72
2018-11-20T04:26:31.939Z,1.70
2018-11-20T04:27:31.962Z,1.73
2018-11-20T04:28:31.986Z,1.80
2018-11-20T04:29:32.012Z,1.81
2018-11-20T04:30:32.035Z,1.93
2018-11-20T04:31:32.061Z,2.03
2018-11-20T04:32:32.086Z,2.02
2018-11-20T04:33:32.110Z,2.14
2018-11-20T04:34:32.136Z,1.95
2018-11-20T04:35:32.158Z,1.91
2018-11-20T04:36:32.184Z,1.99
2018-11-20T04:37:32.207Z,2.16
2018-11-20T04:38:32.233Z,2.03
2018-11-20T04:39:32.257Z,2.00
2018-11-20T04:40:32.281Z,1.98
2018-11-20T04:41:32.305Z,1.93
2018-11-20T04:42:32.330Z,1.93
2018-11-20T04:43:32.354Z,1.83
2018-11-20T04:44:32.381Z,1.87
2018-11-20T04:45:32.404Z,1.88
2018-11-20T04:46:32.429Z,1.93
2018-11-20T04:47:32.457Z,1.83
2018-11-20T04:48:32.477Z,1.84
2018-11-20T04:49:32.501Z,1.91
2018-11-20T04:50:32.525Z,1.90
2018-11-20T04:51:32.552Z,1.99
2018-11-20T04:52:32.577Z,2.02
2018-11-20T04:53:32.599Z,2.00
2018-11-20T04:54:32.623Z,1.90
2018-11-20T04:55:32.649Z,1.91
2018-11-20T04:56:32.677Z,1.81
2018-11-20T04:57:32.744Z,1.93
2018-11-20T04:58:32.723Z,1.93
2018-11-20T04:59:32.748Z,1.83
2018-11-20T05:00:32.771Z,1.80
2018-11-20T05:01:32.795Z,1.68
2018-11-20T05:02:32.819Z,1.55
2018-11-20T05:03:32.845Z,1.52
2018-11-20T05:04:32.870Z,1.50
2018-11-20T05:05:32.893Z,1.45
2018-11-20T05:06:32.940Z,1.42
2018-11-20T05:07:32.943Z,1.40
2018-11-20T05:08:32.968Z,1.36
2018-11-20T05:09:32.990Z,1.42
2018-11-20T05:10:33.015Z,1.36
2018-11-20T05:11:33.042Z,1.41
2018-11-20T05:12:33.065Z,1.41
2018-11-20T05:13:33.093Z,1.47
2018-11-20T05:14:33.112Z,1.40
2018-11-20T05:15:33.137Z,1.45
2018-11-20T05:16:33.162Z,1.45
2018-11-20T05:17:33.186Z,1.59
2018-11-20T05:18:33.210Z,1.58
2018-11-20T05:19:33.235Z,1.66
2018-11-20T05:20:33.259Z,1.80
2018-11-20T05:21:33.283Z,1.83
2018-11-20T05:22:33.309Z,2.00
2018-11-20T05:23:33.332Z,1.91
2018-11-20T05:24:33.357Z,1.91
2018-11-20T05:25:33.383Z,1.87
2018-11-20T05:26:33.406Z,1.99
2018-11-20T05:27:33.429Z,1.93
2018-11-20T05:28:33.454Z,1.90
2018-11-20T05:29:33.479Z,1.91
2018-11-20T05:30:33.503Z,1.91
2018-11-20T05:31:33.527Z,1.88
2018-11-20T05:32:33.551Z,1.95
2018-11-20T05:33:33.574Z,1.93
2018-11-20T05:34:33.598Z,1.91
2018-11-20T05:35:33.624Z,1.91
2018-11-20T05:36:33.648Z,2.03
2018-11-20T05:37:33.671Z,2.14
2018-11-20T05:38:33.695Z,2.20
2018-11-20T05:39:33.720Z,2.06
2018-11-20T05:40:33.824Z,1.95
2018-11-20T05:41:33.769Z,1.93
2018-11-20T05:42:33.794Z,1.93
2018-11-20T05:43:33.822Z,1.86
2018-11-20T05:44:33.842Z,1.76
2018-11-20T05:45:33.871Z,1.81
2018-11-20T05:46:33.914Z,1.99
2018-11-20T05:47:33.919Z,2.00
2018-11-20T05:48:33.947Z,2.20
2018-11-20T05:49:33.963Z,2.30
2018-11-20T05:50:33.986Z,2.31
2018-11-20T05:51:34.010Z,2.25
2018-11-20T05:52:34.035Z,2.41
2018-11-20T05:53:34.059Z,2.45
2018-11-20T05:54:34.083Z,2.49
2018-11-20T05:55:34.108Z,2.63
2018-11-20T05:56:34.131Z,2.81
2018-11-20T05:57:34.154Z,2.87
2018-11-20T05:58:34.263Z,2.90
2018-11-20T05:59:34.204Z,2.96
2018-11-20T06:00:34.233Z,2.97
2018-11-20T06:01:34.253Z,3.02
2018-11-20T06:02:34.326Z,3.08
2018-11-20T06:03:34.301Z,2.93
2018-11-20T06:04:34.326Z,3.02
2018-11-20T06:05:34.348Z,3.28
2018-11-20T06:06:34.375Z,3.47
2018-11-20T06:07:34.647Z,3.52
2018-11-20T06:08:34.421Z,3.69
2018-11-20T06:09:34.445Z,3.61
2018-11-20T06:10:34.468Z,3.65
2018-11-20T06:11:34.494Z,3.62
2018-11-20T06:12:34.527Z,3.54
2018-11-20T06:13:34.540Z,3.55
2018-11-20T06:14:34.565Z,3.51
2018-11-20T06:15:34.591Z,3.72
2018-11-20T06:16:34.615Z,3.84
2018-11-20T06:17:34.640Z,3.80
2018-11-20T06:18:34.667Z,3.94
2018-11-20T06:19:34.686Z,4.06
2018-11-20T06:20:34.710Z,4.06
2018-11-20T06:21:34.734Z,4.04
2018-11-20T06:22:34.759Z,4.23
2018-11-20T06:23:34.783Z,4.16
2018-11-20T06:24:34.807Z,4.14
2018-11-20T06:25:34.831Z,4.00
2018-11-20T06:26:34.855Z,4.16
2018-11-20T06:27:34.879Z,4.02
2018-11-20T06:28:34.912Z,3.98
2018-11-20T06:29:34.927Z,4.00
2018-11-20T06:30:34.960Z,3.86
2018-11-20T06:31:34.977Z,3.94
2018-11-20T06:32:35.001Z,3.97
2018-11-20T06:33:35.026Z,3.96
2018-11-20T06:34:35.099Z,3.79
2018-11-20T06:35:35.074Z,3.70
2018-11-20T06:36:35.098Z,3.72
2018-11-20T06:37:35.127Z,3.65
2018-11-20T06:38:35.146Z,3.79
2018-11-20T06:39:35.171Z,3.80
2018-11-20T06:40:35.195Z,3.83
2018-11-20T06:41:35.220Z,3.78
2018-11-20T06:42:35.244Z,3.79
2018-11-20T06:43:35.268Z,3.79
2018-11-20T06:44:35.296Z,3.73
2018-11-20T06:45:35.315Z,3.79
2018-11-20T06:46:35.341Z,3.78
2018-11-20T06:47:35.366Z,3.79
2018-11-20T06:48:35.390Z,3.75
2018-11-20T06:49:35.412Z,3.78
2018-11-20T06:50:35.437Z,3.76
2018-11-20T06:51:35.462Z,3.76
2018-11-20T06:52:35.488Z,3.76
2018-11-20T06:53:35.632Z,3.87
2018-11-20T06:54:35.536Z,3.83
2018-11-20T06:55:35.559Z,3.68
2018-11-20T06:56:35.591Z,3.84
2018-11-20T06:57:35.677Z,3.83
2018-11-20T06:58:35.632Z,3.79
2018-11-20T06:59:35.657Z,3.75
2018-11-20T07:00:35.683Z,3.65
2018-11-20T07:01:35.822Z,3.78
2018-11-20T07:02:35.731Z,3.72
2018-11-20T07:03:35.755Z,3.65
2018-11-20T07:04:35.782Z,3.68
2018-11-20T07:05:35.803Z,3.66
2018-11-20T07:06:35.828Z,3.54
2018-11-20T07:07:36.046Z,3.51
2018-11-20T07:08:35.919Z,3.60
2018-11-20T07:09:35.900Z,3.51
2018-11-20T07:10:35.925Z,3.45
2018-11-20T07:11:35.949Z,3.55
2018-11-20T07:12:35.974Z,3.52
2018-11-20T07:13:35.998Z,3.54
2018-11-20T07:14:36.024Z,3.55
2018-11-20T07:15:36.150Z,3.43
2018-11-20T07:16:36.073Z,3.51
2018-11-20T07:17:36.097Z,3.52
2018-11-20T07:18:36.122Z,3.66
2018-11-20T07:19:36.147Z,3.76
2018-11-20T07:20:36.172Z,3.80
2018-11-20T07:21:36.194Z,3.78
2018-11-20T07:22:36.346Z,3.83
2018-11-20T07:23:36.244Z,3.78
2018-11-20T07:24:36.285Z,3.84
2018-11-20T07:25:36.296Z,3.75
2018-11-20T07:26:36.326Z,3.83
2018-11-20T07:27:36.343Z,3.86
2018-11-20T07:28:36.368Z,3.86
2018-11-20T07:29:36.518Z,4.02
2018-11-20T07:30:36.515Z,4.06
2018-11-20T07:31:36.480Z,3.98
2018-11-20T07:32:36.470Z,4.04
2018-11-20T07:33:36.492Z,4.11
2018-11-20T07:34:36.537Z,4.04
2018-11-20T07:35:36.540Z,3.91
2018-11-20T07:36:36.572Z,3.88
2018-11-20T07:37:36.593Z,4.04
2018-11-20T07:38:36.613Z,3.96
2018-11-20T07:39:36.637Z,3.96
2018-11-20T07:40:36.666Z,4.16
2018-11-20T07:41:36.875Z,5.06
2018-11-20T07:42:36.711Z,5.57
2018-11-20T07:43:36.786Z,5.79
2018-11-20T07:44:36.762Z,5.85
2018-11-20T07:45:36.785Z,6.28
2018-11-20T07:46:36.841Z,6.76
2018-11-20T07:47:36.837Z,6.98
2018-11-20T07:48:36.862Z,7.63
2018-11-20T07:49:36.886Z,8.02
2018-11-20T07:50:36.911Z,8.38
2018-11-20T07:51:37.148Z,8.66
2018-11-20T07:52:36.962Z,8.98
2018-11-20T07:53:36.988Z,9.32
2018-11-20T07:54:37.013Z,9.32
2018-11-20T07:55:37.234Z,9.35
2018-11-20T07:56:37.115Z,9.56
2018-11-20T07:57:37.091Z,9.56
2018-11-20T07:58:37.117Z,10.05
2018-11-20T07:59:37.146Z,10.56
2018-11-20T08:00:37.171Z,10.89
2018-11-20T08:01:37.196Z,10.88
2018-11-20T08:02:37.224Z,11.29
2018-11-20T08:03:37.250Z,11.47
2018-11-20T08:04:37.283Z,11.33
2018-11-20T08:05:37.304Z,11.52
2018-11-20T08:06:37.330Z,11.95
2018-11-20T08:07:37.358Z,11.51
2018-11-20T08:08:37.478Z,11.62
2018-11-20T08:09:37.462Z,11.07
2018-11-20T08:10:37.440Z,11.35
2018-11-20T08:11:37.468Z,11.70
2018-11-20T08:12:37.497Z,11.57
2018-11-20T08:13:37.524Z,11.83
2018-11-20T08:14:37.551Z,12.09
2018-11-20T08:15:37.689Z,12.49
2018-11-20T08:16:37.608Z,12.60
2018-11-20T08:17:37.637Z,12.77
2018-11-20T08:18:37.665Z,12.95
2018-11-20T08:19:37.694Z,12.86
2018-11-20T08:20:37.724Z,13.05
2018-11-20T08:21:37.753Z,13.25
2018-11-20T08:22:37.782Z,12.86
2018-11-20T08:23:37.811Z,12.83
2018-11-20T08:24:37.839Z,12.62
2018-11-20T08:25:37.922Z,12.93
2018-11-20T08:26:37.936Z,12.62
2018-11-20T08:27:37.930Z,12.28
2018-11-20T08:28:37.959Z,12.38
2018-11-20T08:29:37.991Z,12.54
2018-11-20T08:30:38.019Z,12.86
2018-11-20T08:31:38.048Z,12.09
2018-11-20T08:32:38.078Z,12.01
2018-11-20T08:33:38.208Z,12.34
2018-11-20T08:34:38.139Z,13.39
2018-11-20T08:35:38.170Z,13.87
2018-11-20T08:36:38.201Z,13.62
2018-11-20T08:37:38.232Z,13.48
2018-11-20T08:38:38.265Z,13.64
2018-11-20T08:39:38.293Z,14.32
2018-11-20T08:40:38.324Z,14.07
2018-11-20T08:41:38.355Z,14.69
2018-11-20T08:42:38.388Z,14.95
2018-11-20T08:43:38.421Z,14.46
2018-11-20T08:44:38.449Z,14.40
2018-11-20T08:45:38.479Z,14.52
2018-11-20T08:46:38.512Z,14.51
2018-11-20T08:47:38.569Z,14.09
2018-11-20T08:48:38.581Z,14.28
2018-11-20T08:49:38.605Z,13.84
2018-11-20T08:50:38.639Z,14.14
2018-11-20T08:51:38.670Z,14.04
2018-11-20T08:52:38.701Z,13.88
2018-11-20T08:53:38.766Z,13.70
2018-11-20T08:54:38.767Z,13.38
2018-11-20T08:55:38.799Z,13.54
2018-11-20T08:56:38.829Z,13.60
2018-11-20T08:57:38.862Z,13.84
2018-11-20T08:58:38.895Z,14.43
2018-11-20T08:59:38.973Z,14.57
2018-11-20T09:00:38.960Z,14.69
2018-11-20T09:01:38.993Z,14.70
2018-11-20T09:02:39.120Z,14.51
2018-11-20T09:03:39.059Z,13.32
2018-11-20T09:04:39.091Z,13.78
2018-11-20T09:05:39.123Z,13.89
2018-11-20T09:06:39.158Z,14.04
2018-11-20T09:07:39.189Z,13.44
2018-11-20T09:08:39.220Z,12.89
2018-11-20T09:09:39.255Z,12.56
2018-11-20T09:10:39.332Z,11.83
2018-11-20T09:11:39.320Z,12.83
2018-11-20T09:12:39.354Z,12.85
2018-11-20T09:13:39.386Z,12.75
2018-11-20T09:14:39.419Z,12.62
2018-11-20T09:15:39.452Z,12.32
2018-11-20T09:16:39.487Z,12.92
2018-11-20T09:17:39.518Z,13.32
2018-11-20T09:18:39.554Z,12.77
2018-11-20T09:19:39.591Z,13.36
2018-11-20T09:20:39.621Z,13.79
2018-11-20T09:21:39.652Z,14.12
2018-11-20T09:22:39.686Z,14.75
2018-11-20T09:23:39.786Z,14.09
2018-11-20T09:24:39.753Z,14.15
2018-11-20T09:25:39.815Z,13.49
2018-11-20T09:26:39.820Z,13.77
2018-11-20T09:27:39.870Z,13.77
2018-11-20T09:28:39.890Z,13.12
2018-11-20T09:29:39.928Z,13.32
2018-11-20T09:30:39.955Z,13.60
2018-11-20T09:31:39.996Z,14.22
2018-11-20T09:32:40.024Z,14.22
2018-11-20T09:33:40.057Z,14.15
2018-11-20T09:34:40.263Z,14.27
2018-11-20T09:35:40.251Z,13.89
2018-11-20T09:36:40.161Z,13.36
2018-11-20T09:37:40.192Z,13.05
2018-11-20T09:38:40.235Z,13.45
2018-11-20T09:39:40.262Z,14.32
2018-11-20T09:40:40.300Z,14.46
2018-11-20T09:41:40.331Z,14.52
2018-11-20T09:42:40.367Z,14.65
2018-11-20T09:43:40.399Z,14.98
2018-11-20T09:44:40.437Z,15.21
2018-11-20T09:45:40.469Z,15.31
2018-11-20T09:46:40.584Z,16.15
2018-11-20T09:47:40.539Z,16.20
2018-11-20T09:48:40.575Z,15.41
2018-11-20T09:49:40.608Z,14.60
2018-11-20T09:50:40.642Z,15.10
2018-11-20T09:51:40.678Z,15.10
2018-11-20T09:52:40.802Z,15.19
2018-11-20T09:53:40.749Z,15.94
2018-11-20T09:54:40.784Z,16.42
2018-11-20T09:55:40.820Z,15.41
2018-11-20T09:56:40.854Z,15.74
2018-11-20T09:57:40.890Z,14.18
2018-11-20T09:58:40.925Z,15.27
2018-11-20T09:59:41.000Z,14.60
2018-11-20T10:00:40.998Z,14.94
2018-11-20T10:01:41.074Z,15.93
2018-11-20T10:02:41.068Z,16.70
2018-11-20T10:03:41.147Z,17.11
2018-11-20T10:04:41.139Z,17.46
2018-11-20T10:05:41.177Z,17.89
2018-11-20T10:06:41.211Z,17.34
2018-11-20T10:07:41.249Z,17.06
2018-11-20T10:08:41.299Z,17.36
2018-11-20T10:09:41.319Z,16.81
2018-11-20T10:10:41.357Z,15.84
2018-11-20T10:11:41.394Z,16.04
2018-11-20T10:12:41.432Z,16.34
2018-11-20T10:13:41.466Z,17.06
2018-11-20T10:14:41.601Z,17.48
2018-11-20T10:15:41.539Z,18.05
2018-11-20T10:16:41.576Z,19.16
2018-11-20T10:17:41.613Z,19.51
2018-11-20T10:18:41.651Z,19.77
2018-11-20T10:19:41.687Z,19.54
2018-11-20T10:20:41.773Z,18.90
2018-11-20T10:21:41.877Z,18.65
2018-11-20T10:22:41.799Z,17.52
2018-11-20T10:23:41.852Z,17.08
2018-11-20T10:24:41.904Z,15.62
2018-11-20T10:25:42.059Z,16.27
2018-11-20T10:26:41.949Z,17.33
2018-11-20T10:27:41.990Z,18.72
2018-11-20T10:28:42.025Z,18.80
2018-11-20T10:29:42.063Z,19.21
2018-11-20T10:30:42.103Z,19.02
2018-11-20T10:31:42.138Z,18.26
2018-11-20T10:32:42.202Z,19.02
2018-11-20T10:33:42.215Z,18.66
2018-11-20T10:34:42.383Z,17.87
2018-11-20T10:35:42.291Z,18.55
2018-11-20T10:36:42.332Z,19.13
2018-11-20T10:37:42.369Z,18.78
2018-11-20T10:38:42.406Z,18.48
2018-11-20T10:39:42.446Z,18.15
2018-11-20T10:40:42.550Z,19.25
2018-11-20T10:41:42.525Z,19.55
2018-11-20T10:42:42.561Z,19.55
2018-11-20T10:43:42.601Z,19.88
2018-11-20T10:44:42.639Z,19.62
2018-11-20T10:45:42.679Z,17.93
2018-11-20T10:46:42.895Z,18.35
2018-11-20T10:47:42.757Z,17.93
2018-11-20T10:48:42.794Z,17.99
2018-11-20T10:49:42.833Z,18.41
2018-11-20T10:50:42.874Z,18.32
2018-11-20T10:51:42.918Z,17.82
2018-11-20T10:52:43.044Z,17.96
2018-11-20T10:53:42.992Z,18.65
2018-11-20T10:54:43.029Z,19.07
2018-11-20T10:55:43.069Z,18.08
2018-11-20T10:56:43.108Z,17.84
2018-11-20T10:57:43.148Z,17.97
2018-11-20T10:58:43.186Z,18.73
2018-11-20T10:59:43.366Z,18.94
2018-11-20T11:00:43.266Z,19.22
2018-11-20T11:01:43.304Z,19.56
2018-11-20T11:02:43.344Z,19.46
2018-11-20T11:03:43.431Z,18.88
2018-11-20T11:04:43.446Z,18.82
2018-11-20T11:05:43.460Z,18.47
2018-11-20T11:06:43.670Z,19.25
2018-11-20T11:07:43.681Z,19.74
2018-11-20T11:08:43.580Z,20.48
2018-11-20T11:09:43.617Z,20.74
2018-11-20T11:10:43.658Z,20.91
2018-11-20T11:11:43.854Z,19.91
2018-11-20T11:12:43.804Z,19.71
2018-11-20T11:13:43.775Z,20.03
2018-11-20T11:14:43.864Z,19.81
2018-11-20T11:15:43.855Z,19.86
2018-11-20T11:16:43.895Z,19.81
2018-11-20T11:17:43.933Z,19.29
2018-11-20T11:18:43.973Z,20.21
2018-11-20T11:19:44.013Z,20.50
2018-11-20T11:20:44.062Z,20.62
2018-11-20T11:22:44.135Z,21.07
2018-11-20T11:23:44.173Z,20.88
2018-11-20T11:24:44.216Z,21.67
2018-11-20T11:25:44.302Z,21.37
2018-11-20T11:26:44.293Z,19.46
2018-11-20T11:27:44.334Z,19.44
2018-11-20T11:28:44.373Z,20.31
2018-11-20T11:29:44.419Z,20.13
2018-11-20T11:30:44.454Z,20.35
2018-11-20T11:31:44.493Z,20.95
2018-11-20T11:32:44.535Z,21.46
2018-11-20T11:33:44.571Z,22.07
2018-11-20T11:34:44.611Z,21.84
2018-11-20T11:35:44.655Z,20.80
2018-11-20T11:36:44.696Z,19.84
2018-11-20T11:37:44.732Z,19.47
2018-11-20T11:38:44.772Z,20.01
2018-11-20T11:39:44.837Z,21.16
2018-11-20T11:40:44.852Z,21.28
2018-11-20T11:41:44.898Z,21.29
2018-11-20T11:42:44.934Z,20.99
2018-11-20T11:43:44.981Z,21.94
2018-11-20T11:44:45.015Z,21.86
2018-11-20T11:45:45.053Z,21.56
2018-11-20T11:46:45.093Z,21.21
2018-11-20T11:47:45.135Z,21.21
2018-11-20T11:48:45.176Z,21.22
2018-11-20T11:49:45.218Z,21.52
2018-11-20T11:50:45.256Z,22.27
2018-11-20T11:51:45.295Z,23.01
2018-11-20T11:52:45.337Z,23.25
2018-11-20T11:53:45.381Z,24.10
2018-11-20T11:54:45.448Z,21.64
2018-11-20T11:55:45.457Z,21.67
2018-11-20T11:56:45.498Z,22.31
2018-11-20T11:57:45.575Z,22.62
2018-11-20T11:58:45.582Z,23.39
2018-11-20T11:59:45.619Z,22.98
2018-11-20T12:00:45.661Z,22.46
2018-11-20T12:03:45.781Z,22.24
2018-11-20T12:04:45.821Z,22.72
2018-11-20T12:05:45.861Z,22.31
2018-11-20T12:06:45.902Z,22.79
2018-11-20T12:07:47.287Z,22.91
2018-11-20T12:08:45.985Z,20.91
2018-11-20T12:09:46.026Z,19.06
2018-11-20T12:10:46.067Z,20.48
2018-11-20T12:11:46.181Z,20.92
2018-11-20T12:12:46.148Z,20.99
2018-11-20T12:13:46.186Z,21.62
2018-11-20T12:14:47.189Z,21.28
2018-11-20T12:15:46.269Z,21.31
2018-11-20T12:16:46.309Z,21.83
2018-11-20T12:17:46.349Z,21.68
2018-11-20T12:18:46.389Z,21.65
2018-11-20T12:19:46.430Z,20.61
2018-11-20T12:20:46.472Z,20.29
2018-11-20T12:21:46.514Z,21.24
2018-11-20T12:22:46.553Z,21.46
2018-11-20T12:23:46.599Z,20.14
2018-11-20T12:24:47.357Z,19.51
2018-11-20T12:25:46.673Z,19.84
2018-11-20T12:26:46.715Z,18.85
2018-11-20T12:27:46.760Z,19.22
2018-11-20T12:28:46.796Z,20.61
2018-11-20T12:29:46.837Z,20.74
2018-11-20T12:30:46.875Z,21.06
2018-11-20T12:31:46.916Z,21.06
2018-11-20T12:32:49.205Z,20.28
2018-11-20T12:33:47.002Z,19.54
2018-11-20T12:34:47.036Z,18.76
2018-11-20T12:35:47.078Z,17.37
2018-11-20T12:36:48.810Z,18.11
2018-11-20T12:37:47.156Z,19.47
2018-11-20T12:38:47.198Z,19.06
2018-11-20T12:39:47.238Z,18.90
2018-11-20T12:40:48.540Z,19.55
2018-11-20T12:41:47.316Z,18.76
2018-11-20T12:42:47.356Z,19.07
2018-11-20T12:43:47.396Z,17.79
2018-11-20T12:44:47.435Z,16.94
2018-11-20T12:45:47.474Z,16.21
2018-11-20T12:46:47.514Z,15.44
2018-11-20T12:47:47.553Z,14.81
2018-11-20T12:48:47.592Z,15.32
2018-11-20T12:49:47.630Z,16.28
2018-11-20T12:50:47.671Z,15.47
2018-11-20T12:51:48.826Z,14.96
2018-11-20T12:52:47.749Z,14.47
2018-11-20T12:53:47.786Z,14.58
2018-11-20T12:54:47.824Z,14.89
2018-11-20T12:55:47.863Z,14.61
2018-11-20T12:56:47.906Z,13.77
2018-11-20T12:57:47.942Z,13.07
2018-11-20T12:58:47.976Z,12.92
2018-11-20T12:59:48.014Z,12.57
2018-11-20T13:00:48.049Z,12.27
2018-11-20T13:01:48.085Z,12.75
2018-11-20T13:02:48.122Z,12.75
2018-11-20T13:03:48.158Z,12.62
2018-11-20T13:04:49.924Z,12.07
2018-11-20T13:05:48.231Z,11.76
2018-11-20T13:06:48.265Z,11.70
2018-11-20T13:07:48.301Z,11.67
2018-11-20T13:08:48.337Z,10.97
2018-11-20T13:09:48.371Z,10.63
2018-11-20T13:10:48.683Z,10.48
2018-11-20T13:11:48.442Z,10.44